sensor_id;sensor_type;location;lat;lon;timestamp;pressure;altitude;pressure_sealevel;temperature;humidity
8575;BME280;4325;42.520;27.448;2022-08-03T00:01:53;100902.50;;;23.71;100.00
8575;BME280;4325;42.520;27.448;2022-08-03T00:04:20;100890.94;;;23.56;100.00
8575;BME280;4325;42.520;27.448;2022-08-03T00:06:47;100891.63;;;23.53;100.00
8575;BME280;4325;42.520;27.448;2022-08-03T00:09:14;100893.16;;;23.51;100.00
8575;BME280;4325;42.520;27.448;2022-08-03T00:11:42;100896.56;;;23.44;100.00
8575;BME280;4325;42.520;27.448;2022-08-03T00:14:09;100881.44;;;23.33;100.00
8575;BME280;4325;42.520;27.448;2022-08-03T00:16:36;100886.22;;;23.33;100.00
8575;BME280;4325;42.520;27.448;2022-08-03T00:19:03;100886.31;;;23.36;100.00
8575;BME280;4325;42.520;27.448;2022-08-03T00:21:30;100890.31;;;23.35;100.00
8575;BME280;4325;42.520;27.448;2022-08-03T00:23:57;100880.63;;;23.33;100.00
8575;BME280;4325;42.520;27.448;2022-08-03T00:26:23;100883.78;;;23.31;100.00
8575;BME280;4325;42.520;27.448;2022-08-03T00:28:52;100882.13;;;23.30;100.00
8575;BME280;4325;42.520;27.448;2022-08-03T00:31:19;100877.72;;;23.29;100.00
8575;BME280;4325;42.520;27.448;2022-08-03T00:33:45;100882.13;;;23.30;100.00
8575;BME280;4325;42.520;27.448;2022-08-03T00:36:12;100887.28;;;23.28;100.00
8575;BME280;4325;42.520;27.448;2022-08-03T00:38:39;100889.38;;;23.31;100.00
8575;BME280;4325;42.520;27.448;2022-08-03T00:41:06;100888.44;;;23.27;100.00
8575;BME280;4325;42.520;27.448;2022-08-03T00:43:33;100891.47;;;23.22;100.00
8575;BME280;4325;42.520;27.448;2022-08-03T00:46:01;100891.72;;;23.17;100.00
8575;BME280;4325;42.520;27.448;2022-08-03T00:48:28;100893.59;;;23.13;100.00
8575;BME280;4325;42.520;27.448;2022-08-03T00:50:55;100895.31;;;23.18;100.00
8575;BME280;4325;42.520;27.448;2022-08-03T00:53:22;100895.00;;;23.19;100.00
8575;BME280;4325;42.520;27.448;2022-08-03T00:55:49;100892.88;;;23.16;100.00
8575;BME280;4325;42.520;27.448;2022-08-03T00:58:16;100885.44;;;23.08;100.00
8575;BME280;4325;42.520;27.448;2022-08-03T01:00:43;100890.44;;;23.02;100.00
8575;BME280;4325;42.520;27.448;2022-08-03T01:03:12;100889.09;;;22.96;100.00
8575;BME280;4325;42.520;27.448;2022-08-03T01:05:44;100891.88;;;22.84;100.00
8575;BME280;4325;42.520;27.448;2022-08-03T01:08:21;100891.53;;;22.74;100.00
8575;BME280;4325;42.520;27.448;2022-08-03T01:11:05;100893.88;;;22.72;100.00
8575;BME280;4325;42.520;27.448;2022-08-03T01:13:40;100895.50;;;22.73;100.00
8575;BME280;4325;42.520;27.448;2022-08-03T01:16:14;100897.13;;;22.74;100.00
8575;BME280;4325;42.520;27.448;2022-08-03T01:18:50;100896.19;;;22.70;100.00
8575;BME280;4325;42.520;27.448;2022-08-03T01:21:23;100890.84;;;22.65;100.00
8575;BME280;4325;42.520;27.448;2022-08-03T01:23:59;100895.47;;;22.61;100.00
8575;BME280;4325;42.520;27.448;2022-08-03T01:26:48;100885.91;;;22.50;100.00
8575;BME280;4325;42.520;27.448;2022-08-03T01:32:19;100894.28;;;22.38;100.00
8575;BME280;4325;42.520;27.448;2022-08-03T01:34:53;100890.09;;;22.31;100.00
8575;BME280;4325;42.520;27.448;2022-08-03T01:37:25;100888.91;;;22.20;100.00
8575;BME280;4325;42.520;27.448;2022-08-03T01:39:55;100895.16;;;22.17;100.00
8575;BME280;4325;42.520;27.448;2022-08-03T01:42:24;100900.97;;;22.12;100.00
8575;BME280;4325;42.520;27.448;2022-08-03T01:44:54;100894.81;;;22.07;100.00
8575;BME280;4325;42.520;27.448;2022-08-03T01:47:23;100885.44;;;21.91;100.00
8575;BME280;4325;42.520;27.448;2022-08-03T01:49:52;100904.66;;;21.92;100.00
8575;BME280;4325;42.520;27.448;2022-08-03T01:52:20;100899.88;;;21.93;100.00
8575;BME280;4325;42.520;27.448;2022-08-03T01:54:50;100892.41;;;21.85;100.00
8575;BME280;4325;42.520;27.448;2022-08-03T01:57:18;100893.25;;;21.85;100.00
8575;BME280;4325;42.520;27.448;2022-08-03T01:59:48;100893.72;;;21.87;100.00
8575;BME280;4325;42.520;27.448;2022-08-03T02:02:18;100890.63;;;21.80;100.00
8575;BME280;4325;42.520;27.448;2022-08-03T02:04:46;100881.44;;;21.80;100.00
8575;BME280;4325;42.520;27.448;2022-08-03T02:07:15;100892.81;;;21.75;100.00
8575;BME280;4325;42.520;27.448;2022-08-03T02:09:44;100892.94;;;21.78;100.00
8575;BME280;4325;42.520;27.448;2022-08-03T02:12:13;100895.50;;;21.83;100.00
8575;BME280;4325;42.520;27.448;2022-08-03T02:14:42;100892.53;;;21.88;100.00
8575;BME280;4325;42.520;27.448;2022-08-03T02:17:11;100887.66;;;21.85;100.00
8575;BME280;4325;42.520;27.448;2022-08-03T02:19:41;100898.25;;;21.92;100.00
8575;BME280;4325;42.520;27.448;2022-08-03T02:22:10;100897.78;;;21.90;100.00
8575;BME280;4325;42.520;27.448;2022-08-03T02:24:37;100907.66;;;21.87;100.00
8575;BME280;4325;42.520;27.448;2022-08-03T02:27:09;100900.56;;;21.90;100.00
8575;BME280;4325;42.520;27.448;2022-08-03T02:29:38;100894.16;;;21.89;100.00
8575;BME280;4325;42.520;27.448;2022-08-03T02:32:09;100901.25;;;21.87;100.00
8575;BME280;4325;42.520;27.448;2022-08-03T02:34:39;100905.69;;;21.88;100.00
8575;BME280;4325;42.520;27.448;2022-08-03T02:37:09;100905.03;;;21.82;100.00
8575;BME280;4325;42.520;27.448;2022-08-03T02:39:38;100904.09;;;21.78;100.00
8575;BME280;4325;42.520;27.448;2022-08-03T02:42:08;100908.03;;;21.77;100.00
8575;BME280;4325;42.520;27.448;2022-08-03T02:44:36;100907.34;;;21.80;100.00
8575;BME280;4325;42.520;27.448;2022-08-03T02:47:07;100904.91;;;21.79;100.00
8575;BME280;4325;42.520;27.448;2022-08-03T02:49:35;100905.94;;;21.74;100.00
8575;BME280;4325;42.520;27.448;2022-08-03T02:52:04;100910.34;;;21.75;100.00
8575;BME280;4325;42.520;27.448;2022-08-03T02:54:37;100912.22;;;21.83;100.00
8575;BME280;4325;42.520;27.448;2022-08-03T02:57:06;100910.16;;;21.80;100.00
8575;BME280;4325;42.520;27.448;2022-08-03T02:59:35;100908.97;;;21.81;100.00
8575;BME280;4325;42.520;27.448;2022-08-03T03:02:02;100899.22;;;21.75;100.00
8575;BME280;4325;42.520;27.448;2022-08-03T03:04:30;100903.13;;;21.74;100.00
8575;BME280;4325;42.520;27.448;2022-08-03T03:06:57;100905.31;;;21.68;100.00
8575;BME280;4325;42.520;27.448;2022-08-03T03:09:25;100906.03;;;21.65;100.00
8575;BME280;4325;42.520;27.448;2022-08-03T03:11:53;100907.63;;;21.66;100.00
8575;BME280;4325;42.520;27.448;2022-08-03T03:14:22;100912.25;;;21.62;100.00
8575;BME280;4325;42.520;27.448;2022-08-03T03:16:50;100911.81;;;21.60;100.00
8575;BME280;4325;42.520;27.448;2022-08-03T03:19:19;100910.97;;;21.60;100.00
8575;BME280;4325;42.520;27.448;2022-08-03T03:21:46;100909.84;;;21.61;100.00
8575;BME280;4325;42.520;27.448;2022-08-03T03:24:14;100909.13;;;21.64;100.00
8575;BME280;4325;42.520;27.448;2022-08-03T03:26:42;100922.84;;;21.69;100.00
8575;BME280;4325;42.520;27.448;2022-08-03T03:29:10;100927.91;;;21.76;100.00
8575;BME280;4325;42.520;27.448;2022-08-03T03:31:38;100929.19;;;21.78;100.00
8575;BME280;4325;42.520;27.448;2022-08-03T03:34:05;100927.53;;;21.77;100.00
8575;BME280;4325;42.520;27.448;2022-08-03T03:36:32;100930.34;;;21.77;100.00
8575;BME280;4325;42.520;27.448;2022-08-03T03:38:59;100928.00;;;21.79;100.00
8575;BME280;4325;42.520;27.448;2022-08-03T03:41:26;100930.94;;;21.83;100.00
8575;BME280;4325;42.520;27.448;2022-08-03T03:43:53;100939.59;;;21.90;100.00
8575;BME280;4325;42.520;27.448;2022-08-03T03:46:22;100935.09;;;21.97;100.00
8575;BME280;4325;42.520;27.448;2022-08-03T03:48:49;100946.03;;;22.02;100.00
8575;BME280;4325;42.520;27.448;2022-08-03T03:51:16;100940.22;;;22.07;100.00
8575;BME280;4325;42.520;27.448;2022-08-03T03:53:56;100948.38;;;22.12;100.00
8575;BME280;4325;42.520;27.448;2022-08-03T03:56:23;100949.81;;;22.18;100.00
8575;BME280;4325;42.520;27.448;2022-08-03T03:58:50;100950.06;;;22.25;100.00
8575;BME280;4325;42.520;27.448;2022-08-03T04:01:18;100953.75;;;22.29;100.00
8575;BME280;4325;42.520;27.448;2022-08-03T04:03:46;100951.72;;;22.39;100.00
8575;BME280;4325;42.520;27.448;2022-08-03T04:06:14;100948.47;;;22.49;100.00
8575;BME280;4325;42.520;27.448;2022-08-03T04:08:59;100953.34;;;22.52;100.00
8575;BME280;4325;42.520;27.448;2022-08-03T04:11:48;100946.72;;;22.56;100.00
8575;BME280;4325;42.520;27.448;2022-08-03T04:14:18;100951.44;;;22.64;100.00
8575;BME280;4325;42.520;27.448;2022-08-03T04:16:48;100952.47;;;22.72;100.00
8575;BME280;4325;42.520;27.448;2022-08-03T04:19:23;100948.31;;;22.78;100.00
8575;BME280;4325;42.520;27.448;2022-08-03T04:21:55;100951.81;;;22.87;100.00
8575;BME280;4325;42.520;27.448;2022-08-03T04:24:25;100960.50;;;22.97;100.00
8575;BME280;4325;42.520;27.448;2022-08-03T04:26:55;100963.66;;;23.08;100.00
8575;BME280;4325;42.520;27.448;2022-08-03T04:29:24;100961.66;;;23.21;100.00
8575;BME280;4325;42.520;27.448;2022-08-03T04:31:52;100964.31;;;23.29;100.00
8575;BME280;4325;42.520;27.448;2022-08-03T04:34:21;100957.97;;;23.41;100.00
8575;BME280;4325;42.520;27.448;2022-08-03T04:36:51;100965.03;;;23.50;100.00
8575;BME280;4325;42.520;27.448;2022-08-03T04:39:23;100971.75;;;23.61;99.47
8575;BME280;4325;42.520;27.448;2022-08-03T04:41:52;100968.91;;;23.74;98.17
8575;BME280;4325;42.520;27.448;2022-08-03T04:44:22;100975.66;;;23.85;97.20
8575;BME280;4325;42.520;27.448;2022-08-03T04:46:50;100976.75;;;23.96;92.84
8575;BME280;4325;42.520;27.448;2022-08-03T04:49:19;100979.88;;;24.06;92.59
8575;BME280;4325;42.520;27.448;2022-08-03T04:51:48;100972.97;;;24.16;91.29
8575;BME280;4325;42.520;27.448;2022-08-03T04:54:15;100975.00;;;24.31;90.43
8575;BME280;4325;42.520;27.448;2022-08-03T04:56:42;100970.94;;;24.44;87.94
8575;BME280;4325;42.520;27.448;2022-08-03T04:59:09;100985.56;;;24.53;87.94
8575;BME280;4325;42.520;27.448;2022-08-03T05:01:38;100987.13;;;24.66;85.50
8575;BME280;4325;42.520;27.448;2022-08-03T05:04:05;100994.31;;;24.79;83.67
8575;BME280;4325;42.520;27.448;2022-08-03T05:06:32;100994.50;;;24.86;83.29
8575;BME280;4325;42.520;27.448;2022-08-03T05:09:00;100997.56;;;24.97;84.20
8575;BME280;4325;42.520;27.448;2022-08-03T05:11:27;100987.81;;;25.07;80.97
8575;BME280;4325;42.520;27.448;2022-08-03T05:13:54;100990.50;;;25.19;78.15
8575;BME280;4325;42.520;27.448;2022-08-03T05:16:21;100997.88;;;25.27;76.88
8575;BME280;4325;42.520;27.448;2022-08-03T05:18:50;100992.53;;;25.37;74.78
8575;BME280;4325;42.520;27.448;2022-08-03T05:21:17;100997.25;;;25.49;76.66
8575;BME280;4325;42.520;27.448;2022-08-03T05:23:44;100993.72;;;25.52;74.34
8575;BME280;4325;42.520;27.448;2022-08-03T05:26:12;101010.41;;;25.64;72.89
8575;BME280;4325;42.520;27.448;2022-08-03T05:28:39;101003.78;;;25.72;73.64
8575;BME280;4325;42.520;27.448;2022-08-03T05:31:06;101013.69;;;25.85;72.03
8575;BME280;4325;42.520;27.448;2022-08-03T05:33:32;101001.00;;;25.91;70.77
8575;BME280;4325;42.520;27.448;2022-08-03T05:35:59;100998.78;;;26.00;69.70
8575;BME280;4325;42.520;27.448;2022-08-03T05:38:26;100998.91;;;26.07;68.99
8575;BME280;4325;42.520;27.448;2022-08-03T05:40:53;101010.03;;;26.19;68.45
8575;BME280;4325;42.520;27.448;2022-08-03T05:43:21;101015.72;;;26.23;67.05
8575;BME280;4325;42.520;27.448;2022-08-03T05:45:48;101001.00;;;26.30;67.52
8575;BME280;4325;42.520;27.448;2022-08-03T05:48:15;101005.19;;;26.39;65.66
8575;BME280;4325;42.520;27.448;2022-08-03T05:50:42;101006.66;;;26.52;66.71
8575;BME280;4325;42.520;27.448;2022-08-03T05:53:08;101004.81;;;26.60;64.56
8575;BME280;4325;42.520;27.448;2022-08-03T05:55:36;101012.47;;;26.63;63.12
8575;BME280;4325;42.520;27.448;2022-08-03T05:58:02;101008.09;;;26.65;63.73
8575;BME280;4325;42.520;27.448;2022-08-03T06:00:31;101014.38;;;26.78;61.95
8575;BME280;4325;42.520;27.448;2022-08-03T06:02:58;101014.94;;;26.87;61.92
8575;BME280;4325;42.520;27.448;2022-08-03T06:05:25;101017.06;;;26.94;61.09
8575;BME280;4325;42.520;27.448;2022-08-03T06:07:52;101012.41;;;27.01;63.04
8575;BME280;4325;42.520;27.448;2022-08-03T06:10:19;101014.00;;;27.02;60.54
8575;BME280;4325;42.520;27.448;2022-08-03T06:12:46;101007.31;;;27.10;59.09
8575;BME280;4325;42.520;27.448;2022-08-03T06:15:14;101008.19;;;27.14;60.46
8575;BME280;4325;42.520;27.448;2022-08-03T06:17:47;101005.47;;;27.21;60.15
8575;BME280;4325;42.520;27.448;2022-08-03T06:20:16;101010.53;;;27.35;60.21
8575;BME280;4325;42.520;27.448;2022-08-03T06:22:44;101011.91;;;27.44;57.89
8575;BME280;4325;42.520;27.448;2022-08-03T06:25:11;101005.63;;;27.55;57.09
8575;BME280;4325;42.520;27.448;2022-08-03T06:27:38;101014.59;;;27.64;56.00
8575;BME280;4325;42.520;27.448;2022-08-03T06:30:06;101010.59;;;27.65;53.98
8575;BME280;4325;42.520;27.448;2022-08-03T06:32:35;101013.44;;;27.68;54.99
8575;BME280;4325;42.520;27.448;2022-08-03T06:35:04;101014.69;;;27.71;54.56
8575;BME280;4325;42.520;27.448;2022-08-03T06:37:31;101010.31;;;27.73;53.76
8575;BME280;4325;42.520;27.448;2022-08-03T06:39:58;101018.81;;;27.77;54.81
8575;BME280;4325;42.520;27.448;2022-08-03T06:42:24;101018.13;;;27.87;54.52
8575;BME280;4325;42.520;27.448;2022-08-03T06:44:51;101020.38;;;28.00;53.98
8575;BME280;4325;42.520;27.448;2022-08-03T06:47:18;101011.94;;;28.04;52.90
8575;BME280;4325;42.520;27.448;2022-08-03T06:49:45;101018.91;;;28.13;52.21
8575;BME280;4325;42.520;27.448;2022-08-03T06:52:13;101011.34;;;28.21;51.26
8575;BME280;4325;42.520;27.448;2022-08-03T06:54:40;101027.16;;;28.29;50.36
8575;BME280;4325;42.520;27.448;2022-08-03T06:57:08;101025.25;;;28.40;49.98
8575;BME280;4325;42.520;27.448;2022-08-03T06:59:36;101026.97;;;28.48;49.12
8575;BME280;4325;42.520;27.448;2022-08-03T07:02:03;101010.88;;;28.52;49.33
8575;BME280;4325;42.520;27.448;2022-08-03T07:04:29;101027.53;;;28.61;48.07
8575;BME280;4325;42.520;27.448;2022-08-03T07:06:56;101029.59;;;28.67;46.81
8575;BME280;4325;42.520;27.448;2022-08-03T07:09:24;101032.84;;;28.69;45.63
8575;BME280;4325;42.520;27.448;2022-08-03T07:11:52;101028.41;;;28.68;46.93
8575;BME280;4325;42.520;27.448;2022-08-03T07:14:19;101031.25;;;28.68;45.70
8575;BME280;4325;42.520;27.448;2022-08-03T07:16:46;101031.72;;;28.77;44.71
8575;BME280;4325;42.520;27.448;2022-08-03T07:19:13;101021.72;;;28.84;44.25
8575;BME280;4325;42.520;27.448;2022-08-03T07:21:40;101041.47;;;28.84;43.63
8575;BME280;4325;42.520;27.448;2022-08-03T07:24:07;101032.66;;;28.89;43.69
8575;BME280;4325;42.520;27.448;2022-08-03T07:26:35;101035.41;;;28.85;43.55
8575;BME280;4325;42.520;27.448;2022-08-03T07:29:02;101030.66;;;28.93;43.47
8575;BME280;4325;42.520;27.448;2022-08-03T07:31:29;101035.19;;;29.01;44.10
8575;BME280;4325;42.520;27.448;2022-08-03T07:33:56;101038.47;;;29.10;43.38
8575;BME280;4325;42.520;27.448;2022-08-03T07:36:23;101041.72;;;29.12;43.35
8575;BME280;4325;42.520;27.448;2022-08-03T07:38:51;101043.75;;;29.15;42.79
8575;BME280;4325;42.520;27.448;2022-08-03T07:41:18;101030.97;;;29.24;43.30
8575;BME280;4325;42.520;27.448;2022-08-03T07:43:46;101037.47;;;29.32;42.50
8575;BME280;4325;42.520;27.448;2022-08-03T07:46:13;101044.34;;;29.38;43.16
8575;BME280;4325;42.520;27.448;2022-08-03T07:48:40;101041.59;;;29.45;43.99
8575;BME280;4325;42.520;27.448;2022-08-03T07:51:07;101053.72;;;29.49;42.54
8575;BME280;4325;42.520;27.448;2022-08-03T07:53:33;101050.13;;;29.52;44.82
8575;BME280;4325;42.520;27.448;2022-08-03T07:56:00;101039.25;;;29.58;45.82
8575;BME280;4325;42.520;27.448;2022-08-03T07:58:27;101038.94;;;29.66;44.44
8575;BME280;4325;42.520;27.448;2022-08-03T08:00:55;101044.28;;;29.78;46.43
8575;BME280;4325;42.520;27.448;2022-08-03T08:03:22;101043.03;;;29.76;48.13
8575;BME280;4325;42.520;27.448;2022-08-03T08:05:51;101045.53;;;29.88;44.06
8575;BME280;4325;42.520;27.448;2022-08-03T08:08:18;101034.25;;;29.91;42.11
8575;BME280;4325;42.520;27.448;2022-08-03T08:10:45;101038.75;;;30.06;44.60
8575;BME280;4325;42.520;27.448;2022-08-03T08:13:13;101047.28;;;30.21;41.41
8575;BME280;4325;42.520;27.448;2022-08-03T08:15:40;101043.34;;;30.36;38.93
8575;BME280;4325;42.520;27.448;2022-08-03T08:18:08;101047.41;;;30.45;38.68
8575;BME280;4325;42.520;27.448;2022-08-03T08:20:35;101051.13;;;30.63;38.94
8575;BME280;4325;42.520;27.448;2022-08-03T08:23:05;101045.97;;;31.08;38.82
8575;BME280;4325;42.520;27.448;2022-08-03T08:25:32;101056.03;;;31.69;40.89
8575;BME280;4325;42.520;27.448;2022-08-03T08:28:00;101052.69;;;32.16;42.91
8575;BME280;4325;42.520;27.448;2022-08-03T08:30:30;101048.97;;;33.06;41.82
8575;BME280;4325;42.520;27.448;2022-08-03T08:32:57;101057.13;;;34.26;39.49
8575;BME280;4325;42.520;27.448;2022-08-03T08:35:30;101049.44;;;35.80;36.22
8575;BME280;4325;42.520;27.448;2022-08-03T08:37:59;101054.25;;;37.30;34.13
8575;BME280;4325;42.520;27.448;2022-08-03T08:40:26;101052.56;;;37.64;31.53
8575;BME280;4325;42.520;27.448;2022-08-03T08:42:53;101063.44;;;37.86;32.05
8575;BME280;4325;42.520;27.448;2022-08-03T08:45:20;101056.81;;;38.71;30.87
8575;BME280;4325;42.520;27.448;2022-08-03T08:47:48;101064.97;;;39.57;29.88
8575;BME280;4325;42.520;27.448;2022-08-03T08:50:18;101051.81;;;40.16;29.07
8575;BME280;4325;42.520;27.448;2022-08-03T08:52:48;101055.16;;;40.14;29.01
8575;BME280;4325;42.520;27.448;2022-08-03T08:55:19;101051.59;;;40.45;28.29
8575;BME280;4325;42.520;27.448;2022-08-03T08:57:48;101049.34;;;41.10;27.06
8575;BME280;4325;42.520;27.448;2022-08-03T09:00:16;101057.72;;;42.44;25.59
8575;BME280;4325;42.520;27.448;2022-08-03T09:02:44;101051.03;;;42.98;24.83
8575;BME280;4325;42.520;27.448;2022-08-03T09:05:13;101051.66;;;42.33;24.87
8575;BME280;4325;42.520;27.448;2022-08-03T09:07:40;101060.38;;;43.41;24.36
8575;BME280;4325;42.520;27.448;2022-08-03T09:10:10;101052.81;;;43.90;23.79
8575;BME280;4325;42.520;27.448;2022-08-03T09:12:38;101052.44;;;45.00;22.83
8575;BME280;4325;42.520;27.448;2022-08-03T09:15:20;101061.50;;;45.82;22.12
8575;BME280;4325;42.520;27.448;2022-08-03T09:17:48;101052.47;;;45.75;21.84
8575;BME280;4325;42.520;27.448;2022-08-03T09:20:15;101060.81;;;44.83;22.97
8575;BME280;4325;42.520;27.448;2022-08-03T09:22:54;101053.88;;;44.31;23.05
8575;BME280;4325;42.520;27.448;2022-08-03T09:25:34;101045.00;;;45.13;22.96
8575;BME280;4325;42.520;27.448;2022-08-03T09:28:06;101046.22;;;45.62;22.25
8575;BME280;4325;42.520;27.448;2022-08-03T09:30:34;101038.03;;;45.05;22.62
8575;BME280;4325;42.520;27.448;2022-08-03T09:33:02;101046.69;;;44.41;23.53
8575;BME280;4325;42.520;27.448;2022-08-03T09:35:29;101050.03;;;44.98;23.05
8575;BME280;4325;42.520;27.448;2022-08-03T09:38:13;101049.75;;;46.17;23.11
8575;BME280;4325;42.520;27.448;2022-08-03T09:40:43;101046.88;;;44.82;22.74
8575;BME280;4325;42.520;27.448;2022-08-03T09:43:11;101036.31;;;44.64;22.82
8575;BME280;4325;42.520;27.448;2022-08-03T09:45:39;101036.28;;;44.93;22.59
8575;BME280;4325;42.520;27.448;2022-08-03T09:48:23;101032.59;;;45.88;21.66
8575;BME280;4325;42.520;27.448;2022-08-03T09:50:51;101029.38;;;42.61;23.93
8575;BME280;4325;42.520;27.448;2022-08-03T09:53:19;101022.59;;;41.68;25.51
8575;BME280;4325;42.520;27.448;2022-08-03T09:55:54;101022.13;;;41.96;25.03
8575;BME280;4325;42.520;27.448;2022-08-03T09:58:22;101014.22;;;41.15;25.35
8575;BME280;4325;42.520;27.448;2022-08-03T10:00:57;101021.06;;;41.09;26.33
8575;BME280;4325;42.520;27.448;2022-08-03T10:03:25;101011.03;;;41.13;26.46
8575;BME280;4325;42.520;27.448;2022-08-03T10:05:52;101025.94;;;41.39;26.43
8575;BME280;4325;42.520;27.448;2022-08-03T10:08:19;101017.81;;;40.89;25.99
8575;BME280;4325;42.520;27.448;2022-08-03T10:10:48;101016.63;;;40.15;27.57
8575;BME280;4325;42.520;27.448;2022-08-03T10:13:17;101012.94;;;39.93;27.63
8575;BME280;4325;42.520;27.448;2022-08-03T10:15:45;101020.38;;;39.10;29.05
8575;BME280;4325;42.520;27.448;2022-08-03T10:18:12;101012.59;;;38.97;28.68
8575;BME280;4325;42.520;27.448;2022-08-03T10:20:43;101012.16;;;38.86;29.06
8575;BME280;4325;42.520;27.448;2022-08-03T10:23:12;101010.00;;;39.84;28.83
8575;BME280;4325;42.520;27.448;2022-08-03T10:25:40;101006.31;;;40.27;27.92
8575;BME280;4325;42.520;27.448;2022-08-03T10:28:12;101001.38;;;41.92;26.80
8575;BME280;4325;42.520;27.448;2022-08-03T10:30:46;101007.25;;;43.32;24.59
8575;BME280;4325;42.520;27.448;2022-08-03T10:33:17;100995.97;;;43.44;24.00
8575;BME280;4325;42.520;27.448;2022-08-03T10:35:46;100994.53;;;44.16;23.83
8575;BME280;4325;42.520;27.448;2022-08-03T10:38:18;100997.75;;;42.85;24.54
8575;BME280;4325;42.520;27.448;2022-08-03T10:40:47;100986.47;;;41.30;26.15
8575;BME280;4325;42.520;27.448;2022-08-03T10:43:18;100991.59;;;41.99;26.55
8575;BME280;4325;42.520;27.448;2022-08-03T10:45:48;100983.25;;;41.10;26.41
8575;BME280;4325;42.520;27.448;2022-08-03T10:48:16;100987.78;;;41.29;26.38
8575;BME280;4325;42.520;27.448;2022-08-03T10:50:44;100990.97;;;41.68;26.89
8575;BME280;4325;42.520;27.448;2022-08-03T10:53:11;100995.28;;;41.36;26.04
8575;BME280;4325;42.520;27.448;2022-08-03T10:55:39;100994.97;;;39.80;27.61
8575;BME280;4325;42.520;27.448;2022-08-03T10:58:48;100986.13;;;39.53;28.57
8575;BME280;4325;42.520;27.448;2022-08-03T11:01:17;100993.75;;;40.34;27.47
8575;BME280;4325;42.520;27.448;2022-08-03T11:04:15;100992.22;;;39.21;28.88
8575;BME280;4325;42.520;27.448;2022-08-03T11:06:43;100993.59;;;40.59;27.78
8575;BME280;4325;42.520;27.448;2022-08-03T11:09:15;100978.84;;;41.55;27.03
8575;BME280;4325;42.520;27.448;2022-08-03T11:11:43;100971.47;;;41.90;25.52
8575;BME280;4325;42.520;27.448;2022-08-03T11:14:11;100969.25;;;41.58;25.77
8575;BME280;4325;42.520;27.448;2022-08-03T11:16:41;100974.84;;;42.48;25.79
8575;BME280;4325;42.520;27.448;2022-08-03T11:19:11;100966.88;;;41.83;25.61
8575;BME280;4325;42.520;27.448;2022-08-03T11:21:57;100965.72;;;40.38;26.75
8575;BME280;4325;42.520;27.448;2022-08-03T11:25:00;100972.56;;;39.66;27.95
8575;BME280;4325;42.520;27.448;2022-08-03T11:27:32;100972.16;;;40.20;27.62
8575;BME280;4325;42.520;27.448;2022-08-03T11:30:03;100957.03;;;40.99;27.25
8575;BME280;4325;42.520;27.448;2022-08-03T11:32:59;100960.25;;;42.01;26.00
8575;BME280;4325;42.520;27.448;2022-08-03T11:35:28;100967.75;;;42.67;25.17
8575;BME280;4325;42.520;27.448;2022-08-03T11:38:09;100963.97;;;43.56;24.31
8575;BME280;4325;42.520;27.448;2022-08-03T11:40:39;100953.47;;;42.73;24.27
8575;BME280;4325;42.520;27.448;2022-08-03T11:43:07;100957.84;;;42.68;24.34
8575;BME280;4325;42.520;27.448;2022-08-03T11:45:35;100945.22;;;42.06;25.33
8575;BME280;4325;42.520;27.448;2022-08-03T11:48:13;100949.22;;;42.59;25.39
8575;BME280;4325;42.520;27.448;2022-08-03T11:50:41;100959.78;;;41.21;25.93
8575;BME280;4325;42.520;27.448;2022-08-03T11:53:15;100954.47;;;40.00;27.40
8575;BME280;4325;42.520;27.448;2022-08-03T11:55:42;100942.16;;;40.12;27.92
8575;BME280;4325;42.520;27.448;2022-08-03T11:58:17;100957.59;;;40.76;26.63
8575;BME280;4325;42.520;27.448;2022-08-03T12:00:44;100958.97;;;41.02;26.27
8575;BME280;4325;42.520;27.448;2022-08-03T12:03:15;100946.16;;;39.93;27.71
8575;BME280;4325;42.520;27.448;2022-08-03T12:05:44;100952.38;;;38.88;28.61
8575;BME280;4325;42.520;27.448;2022-08-03T12:08:14;100949.06;;;38.77;29.00
8575;BME280;4325;42.520;27.448;2022-08-03T12:10:47;100951.03;;;38.55;29.33
8575;BME280;4325;42.520;27.448;2022-08-03T12:13:14;100961.19;;;39.41;29.50
8575;BME280;4325;42.520;27.448;2022-08-03T12:15:41;100955.16;;;40.26;26.86
8575;BME280;4325;42.520;27.448;2022-08-03T12:18:14;100954.28;;;39.17;28.44
8575;BME280;4325;42.520;27.448;2022-08-03T12:20:42;100944.72;;;38.35;30.04
8575;BME280;4325;42.520;27.448;2022-08-03T12:23:10;100943.69;;;38.54;29.04
8575;BME280;4325;42.520;27.448;2022-08-03T12:25:38;100945.94;;;38.21;29.53
8575;BME280;4325;42.520;27.448;2022-08-03T12:28:07;100940.59;;;38.74;28.77
8575;BME280;4325;42.520;27.448;2022-08-03T12:30:35;100947.88;;;39.00;27.91
8575;BME280;4325;42.520;27.448;2022-08-03T12:33:16;100935.44;;;39.84;27.75
8575;BME280;4325;42.520;27.448;2022-08-03T12:35:45;100933.28;;;40.28;27.18
8575;BME280;4325;42.520;27.448;2022-08-03T12:38:12;100928.47;;;40.96;26.40
8575;BME280;4325;42.520;27.448;2022-08-03T12:40:39;100927.53;;;40.50;26.99
8575;BME280;4325;42.520;27.448;2022-08-03T12:43:10;100942.78;;;39.51;27.89
8575;BME280;4325;42.520;27.448;2022-08-03T12:45:38;100934.19;;;38.45;28.98
8575;BME280;4325;42.520;27.448;2022-08-03T12:48:08;100928.81;;;37.51;29.89
8575;BME280;4325;42.520;27.448;2022-08-03T12:50:37;100929.72;;;37.48;30.49
8575;BME280;4325;42.520;27.448;2022-08-03T12:53:07;100938.53;;;38.49;28.95
8575;BME280;4325;42.520;27.448;2022-08-03T12:55:35;100931.03;;;37.89;28.89
8575;BME280;4325;42.520;27.448;2022-08-03T12:58:04;100929.38;;;37.46;30.18
8575;BME280;4325;42.520;27.448;2022-08-03T13:00:32;100935.66;;;38.11;29.49
8575;BME280;4325;42.520;27.448;2022-08-03T13:03:00;100934.72;;;38.27;28.92
8575;BME280;4325;42.520;27.448;2022-08-03T13:05:28;100939.75;;;38.23;29.19
8575;BME280;4325;42.520;27.448;2022-08-03T13:07:57;100940.22;;;38.84;28.31
8575;BME280;4325;42.520;27.448;2022-08-03T13:10:28;100937.91;;;38.04;28.50
8575;BME280;4325;42.520;27.448;2022-08-03T13:12:55;100931.00;;;38.30;28.52